createdAt,value
2018-07-13T00:00:31.811Z,19.28
2018-07-13T00:01:31.769Z,19.30
2018-07-13T00:02:31.644Z,19.31
2018-07-13T00:05:13.788Z,19.30
2018-07-13T00:06:13.733Z,19.31
2018-07-13T00:07:13.634Z,19.30
2018-07-13T00:08:13.540Z,19.34
2018-07-13T00:09:13.459Z,19.30
2018-07-13T00:10:13.387Z,19.38
2018-07-13T00:11:13.309Z,19.28
2018-07-13T00:12:13.282Z,19.23
2018-07-13T00:13:13.148Z,19.27
2018-07-13T00:14:13.077Z,19.15
2018-07-13T00:15:12.988Z,19.16
2018-07-13T00:16:12.933Z,19.12
2018-07-13T00:17:12.859Z,19.17
2018-07-13T00:18:12.759Z,19.23
2018-07-13T00:19:12.675Z,19.17
2018-07-13T00:20:12.605Z,19.16
2018-07-13T00:21:12.518Z,19.10
2018-07-13T00:22:13.481Z,19.10
2018-07-13T00:23:12.361Z,19.17
2018-07-13T00:24:12.291Z,19.17
2018-07-13T00:26:54.320Z,19.13
2018-07-13T00:27:54.222Z,19.12
2018-07-13T00:28:54.130Z,19.12
2018-07-13T00:29:54.073Z,19.10
2018-07-13T00:30:53.978Z,19.10
2018-07-13T00:31:53.890Z,19.09
2018-07-13T00:32:53.835Z,19.05
2018-07-13T00:33:53.727Z,19.02
2018-07-13T00:34:53.664Z,18.96
2018-07-13T00:35:53.574Z,19.01
2018-07-13T00:36:53.497Z,19.01
2018-07-13T00:37:53.437Z,18.94
2018-07-13T00:40:35.308Z,19.02
2018-07-13T00:41:35.207Z,19.09
2018-07-13T00:42:35.134Z,18.99
2018-07-13T00:43:35.080Z,19.01
2018-07-13T00:44:35.009Z,18.94
2018-07-13T00:45:34.903Z,18.99
2018-07-13T00:46:34.815Z,19.02
2018-07-13T00:47:34.766Z,18.87
2018-07-13T00:48:34.657Z,18.87
2018-07-13T00:49:34.582Z,18.86
2018-07-13T00:50:34.499Z,18.90
2018-07-13T00:53:16.804Z,18.82
2018-07-13T00:54:16.729Z,18.90
2018-07-13T00:55:16.630Z,18.79
2018-07-13T00:57:58.814Z,18.72
2018-07-13T00:58:58.720Z,18.60
2018-07-13T00:59:58.630Z,18.57
2018-07-13T01:00:58.567Z,18.68
2018-07-13T01:01:58.479Z,18.60
2018-07-13T01:02:59.422Z,18.59
2018-07-13T01:03:58.315Z,18.59
2018-07-13T01:04:58.246Z,18.64
2018-07-13T01:05:58.180Z,18.68
2018-07-13T01:06:58.089Z,18.54
2018-07-13T01:26:21.756Z,18.34
2018-07-13T01:27:20.642Z,18.47
2018-07-13T01:28:20.574Z,18.41
2018-07-13T01:29:20.509Z,18.38
2018-07-13T01:30:20.412Z,18.38
2018-07-13T01:31:20.322Z,18.31
2018-07-13T01:32:20.249Z,18.25
2018-07-13T01:33:20.171Z,18.23
2018-07-13T01:34:21.113Z,18.34
2018-07-13T01:35:20.008Z,18.23
2018-07-13T01:36:19.950Z,18.26
2018-07-13T01:37:19.850Z,18.26
2018-07-13T01:38:19.777Z,18.23
2018-07-13T01:39:19.700Z,18.35
2018-07-13T01:40:19.649Z,18.19
2018-07-13T01:41:19.549Z,18.19
2018-07-13T01:42:19.463Z,18.23
2018-07-13T01:43:19.378Z,18.23
2018-07-13T01:44:19.304Z,18.13
2018-07-13T01:45:19.243Z,18.11
2018-07-13T01:46:19.333Z,18.07
2018-07-13T01:47:19.087Z,18.11
2018-07-13T01:48:18.979Z,18.07
2018-07-13T01:49:18.904Z,18.04
2018-07-13T01:50:18.821Z,18.10
2018-07-13T01:51:18.777Z,18.02
2018-07-13T01:52:18.680Z,18.09
2018-07-13T01:53:20.330Z,18.01
2018-07-13T01:54:18.514Z,18.01
2018-07-13T01:55:18.423Z,18.07
2018-07-13T01:56:19.420Z,18.01
2018-07-13T01:57:18.496Z,17.96
2018-07-13T01:58:18.303Z,17.96
2018-07-13T01:59:18.426Z,18.04
2018-07-13T02:00:18.052Z,17.86
2018-07-13T02:01:17.981Z,17.87
2018-07-13T02:02:17.889Z,17.98
2018-07-13T02:03:17.786Z,17.86
2018-07-13T02:04:17.723Z,17.94
2018-07-13T02:05:17.639Z,17.92
2018-07-13T02:06:17.607Z,17.94
2018-07-13T02:07:17.477Z,17.84
2018-07-13T02:08:17.425Z,17.84
2018-07-13T02:09:17.326Z,17.81
2018-07-13T02:10:17.247Z,17.81
2018-07-13T02:11:17.173Z,17.70
2018-07-13T02:12:17.118Z,17.83
2018-07-13T02:13:17.033Z,17.79
2018-07-13T02:14:16.946Z,17.74
2018-07-13T02:15:16.859Z,17.73
2018-07-13T02:17:58.851Z,17.63
2018-07-13T02:18:58.742Z,17.65
2018-07-13T02:19:58.663Z,17.66
2018-07-13T02:20:58.578Z,17.63
2018-07-13T02:21:58.499Z,17.68
2018-07-13T02:22:58.431Z,17.65
2018-07-13T02:23:58.364Z,17.63
2018-07-13T02:24:58.265Z,17.66
2018-07-13T02:25:58.176Z,17.57
2018-07-13T02:28:40.350Z,17.70
2018-07-13T02:29:40.242Z,17.63
2018-07-13T02:30:40.152Z,17.70
2018-07-13T02:33:22.345Z,17.58
2018-07-13T02:34:24.240Z,17.58
2018-07-13T02:35:22.189Z,17.51
2018-07-13T02:38:04.325Z,17.47
2018-07-13T02:39:04.274Z,17.43
2018-07-13T02:40:04.162Z,17.46
2018-07-13T02:41:04.106Z,17.40
2018-07-13T02:42:04.000Z,17.46
2018-07-13T02:43:03.929Z,17.51
2018-07-13T02:44:03.847Z,17.53
2018-07-13T02:46:45.844Z,17.43
2018-07-13T02:47:45.747Z,17.42
2018-07-13T02:48:45.657Z,17.49
2018-07-13T02:49:45.610Z,17.45
2018-07-13T02:50:45.525Z,17.35
2018-07-13T02:51:45.426Z,17.39
2018-07-13T02:52:45.341Z,17.38
2018-07-13T02:53:45.275Z,17.33
2018-07-13T02:54:45.183Z,17.33
2018-07-13T02:55:45.133Z,17.33
2018-07-13T02:56:45.040Z,17.33
2018-07-13T02:59:27.334Z,17.27
2018-07-13T03:00:28.338Z,17.30
2018-07-13T03:01:27.165Z,17.25
2018-07-13T03:04:09.321Z,17.24
2018-07-13T03:05:09.318Z,17.20
2018-07-13T03:06:09.178Z,17.27
2018-07-13T03:07:09.093Z,17.18
2018-07-13T03:08:09.009Z,17.21
2018-07-13T03:09:08.946Z,17.20
2018-07-13T03:10:08.852Z,17.22
2018-07-13T03:11:08.809Z,17.15
2018-07-13T03:12:08.692Z,17.18
2018-07-13T03:13:08.620Z,17.14
2018-07-13T03:14:08.535Z,17.17
2018-07-13T03:15:08.479Z,17.10
2018-07-13T03:16:08.405Z,17.15
2018-07-13T03:19:15.839Z,17.12
2018-07-13T03:20:15.749Z,17.10
2018-07-13T03:21:15.703Z,17.06
2018-07-13T03:22:15.640Z,17.12
2018-07-13T03:23:15.523Z,17.06
2018-07-13T03:24:15.431Z,17.00
2018-07-13T03:25:15.362Z,17.07
2018-07-13T03:26:15.275Z,17.05
2018-07-13T03:27:15.292Z,17.06
2018-07-13T03:28:15.123Z,17.06
2018-07-13T03:30:57.338Z,16.96
2018-07-13T03:31:57.281Z,16.96
2018-07-13T03:32:57.178Z,16.88
2018-07-13T03:33:57.118Z,16.81
2018-07-13T03:34:57.050Z,16.96
2018-07-13T03:35:56.954Z,16.91
2018-07-13T03:36:56.885Z,16.87
2018-07-13T03:37:57.815Z,16.87
2018-07-13T03:38:56.702Z,16.85
2018-07-13T03:39:56.637Z,16.85
2018-07-13T03:40:56.541Z,16.92
2018-07-13T03:41:56.465Z,17.03
2018-07-13T03:42:56.420Z,17.12
2018-07-13T03:43:56.315Z,17.02
2018-07-13T03:44:56.226Z,17.10
2018-07-13T03:47:38.357Z,17.09
2018-07-13T03:50:20.347Z,17.14
2018-07-13T03:51:20.295Z,17.07
2018-07-13T03:52:20.181Z,17.09
2018-07-13T03:53:20.101Z,17.17
2018-07-13T03:54:20.024Z,17.21
2018-07-13T04:20:01.389Z,17.42
2018-07-13T04:21:01.280Z,17.38
2018-07-13T04:22:01.200Z,17.32
2018-07-13T04:23:01.124Z,17.35
2018-07-13T04:24:01.035Z,17.21
2018-07-13T04:25:00.976Z,17.18
2018-07-13T04:27:42.851Z,17.17
2018-07-13T04:28:42.789Z,17.18
2018-07-13T04:29:42.689Z,17.14
2018-07-13T04:30:42.741Z,17.30
2018-07-13T04:31:42.538Z,17.20
2018-07-13T04:32:42.509Z,17.25
2018-07-13T04:33:42.380Z,17.20
2018-07-13T04:34:42.329Z,17.17
2018-07-13T04:35:42.240Z,17.15
2018-07-13T04:36:42.145Z,17.24
2018-07-13T04:37:42.060Z,17.21
2018-07-13T04:38:42.002Z,17.18
2018-07-13T04:39:41.938Z,17.18
2018-07-13T04:40:42.898Z,17.22
2018-07-13T04:41:41.746Z,17.24
2018-07-13T04:42:41.690Z,17.36
2018-07-13T04:43:42.472Z,17.33
2018-07-13T04:46:24.481Z,17.27
2018-07-13T04:49:05.869Z,17.35
2018-07-13T04:50:05.924Z,17.35
2018-07-13T04:51:05.732Z,17.38
2018-07-13T04:52:05.637Z,17.39
2018-07-13T04:53:05.541Z,17.45
2018-07-13T04:54:07.472Z,17.45
2018-07-13T04:55:05.395Z,17.42
2018-07-13T04:56:05.339Z,17.45
2018-07-13T04:57:05.225Z,17.46
2018-07-13T04:58:05.165Z,17.53
2018-07-13T04:59:05.084Z,17.47
2018-07-13T05:00:04.997Z,17.47
2018-07-13T05:01:04.954Z,17.49
2018-07-13T05:02:04.834Z,17.62
2018-07-13T05:03:04.753Z,17.62
2018-07-13T05:04:04.697Z,17.57
2018-07-13T05:05:04.599Z,17.54
2018-07-13T05:06:04.612Z,17.45
2018-07-13T05:07:04.479Z,17.47
2018-07-13T05:08:04.515Z,17.47
2018-07-13T05:09:04.295Z,17.58
2018-07-13T05:10:04.205Z,17.65
2018-07-13T05:11:04.152Z,17.55
2018-07-13T05:12:04.074Z,17.60
2018-07-13T05:13:03.959Z,17.60
2018-07-13T05:14:03.918Z,17.57
2018-07-13T05:15:03.804Z,17.55
2018-07-13T05:16:03.731Z,17.68
2018-07-13T05:17:03.679Z,17.65
2018-07-13T05:18:03.563Z,17.62
2018-07-13T05:19:03.487Z,17.62
2018-07-13T05:20:03.404Z,17.68
2018-07-13T05:21:03.314Z,17.73
2018-07-13T05:22:03.286Z,17.77
2018-07-13T05:23:03.174Z,17.76
2018-07-13T05:24:03.099Z,17.70
2018-07-13T05:25:03.003Z,17.71
2018-07-13T05:26:02.929Z,17.71
2018-07-13T05:27:02.853Z,17.70
2018-07-13T05:28:02.804Z,17.73
2018-07-13T05:29:02.689Z,17.71
2018-07-13T05:30:02.637Z,17.81
2018-07-13T05:31:02.525Z,17.77
2018-07-13T05:32:02.457Z,17.81
2018-07-13T05:33:02.394Z,17.91
2018-07-13T05:34:02.293Z,17.87
2018-07-13T05:35:02.207Z,17.98
2018-07-13T05:36:02.138Z,17.95
2018-07-13T05:37:02.076Z,18.01
2018-07-13T05:38:02.002Z,18.11
2018-07-13T05:39:01.905Z,18.10
2018-07-13T05:40:01.833Z,18.19
2018-07-13T05:41:01.744Z,18.10
2018-07-13T05:42:01.674Z,18.07
2018-07-13T05:43:01.602Z,18.11
2018-07-13T05:45:43.879Z,18.17
2018-07-13T05:46:43.805Z,18.26
2018-07-13T05:47:43.740Z,18.28
2018-07-13T06:14:05.385Z,18.76
2018-07-13T06:15:05.386Z,18.78
2018-07-13T06:16:05.207Z,18.89
2018-07-13T06:17:05.137Z,18.90
2018-07-13T06:18:05.045Z,18.86
2018-07-13T06:19:04.985Z,18.90
2018-07-13T06:20:04.901Z,18.97
2018-07-13T06:21:04.848Z,18.94
2018-07-13T06:22:04.752Z,18.99
2018-07-13T06:23:04.657Z,19.13
2018-07-13T06:24:04.586Z,19.13
2018-07-13T06:25:04.497Z,19.10
2018-07-13T06:26:04.444Z,19.12
2018-07-13T06:27:04.397Z,19.13
2018-07-13T06:28:04.264Z,19.32
2018-07-13T06:29:04.184Z,19.09
2018-07-13T06:30:04.101Z,19.24
2018-07-13T06:31:04.068Z,19.50
2018-07-13T06:32:03.959Z,20.12
2018-07-13T06:33:03.879Z,21.08
2018-07-13T06:34:03.799Z,22.08
2018-07-13T06:35:03.749Z,22.60
2018-07-13T06:36:03.650Z,23.21
2018-07-13T06:37:03.544Z,23.63
2018-07-13T06:38:03.496Z,24.31
2018-07-13T06:39:03.394Z,24.59
2018-07-13T06:40:03.326Z,24.41
2018-07-13T06:41:03.282Z,23.79
2018-07-13T06:42:03.153Z,23.93
2018-07-13T06:43:03.088Z,24.49
2018-07-13T06:44:03.042Z,25.05
2018-07-13T06:45:02.937Z,25.04
2018-07-13T06:46:02.851Z,25.16
2018-07-13T06:47:02.808Z,25.30
2018-07-13T06:48:02.699Z,25.44
2018-07-13T06:49:02.631Z,25.49
2018-07-13T06:50:02.549Z,25.42
2018-07-13T06:51:02.500Z,25.81
2018-07-13T06:52:02.434Z,26.20
2018-07-13T06:53:02.354Z,26.11
2018-07-13T06:54:02.248Z,26.16
2018-07-13T06:55:02.181Z,25.89
2018-07-13T06:56:02.093Z,26.01
2018-07-13T06:57:02.075Z,26.38
2018-07-13T06:58:01.943Z,26.71
2018-07-13T07:00:43.916Z,26.84
2018-07-13T07:03:25.912Z,26.66
2018-07-13T07:04:25.830Z,26.68
2018-07-13T07:05:25.752Z,27.01
2018-07-13T07:31:47.664Z,27.12
2018-07-13T07:34:30.102Z,26.86
2018-07-13T07:35:29.841Z,27.15
2018-07-13T07:36:29.793Z,27.15
2018-07-13T07:37:29.705Z,27.02
2018-07-13T07:38:29.728Z,27.46
2018-07-13T07:39:29.658Z,27.83
2018-07-13T07:40:29.491Z,27.72
2018-07-13T07:41:29.450Z,27.02
2018-07-13T07:42:29.347Z,26.53
2018-07-13T07:43:29.282Z,26.69
2018-07-13T07:44:29.208Z,26.44
2018-07-13T07:45:29.147Z,26.87
2018-07-13T07:46:29.095Z,27.12
2018-07-13T07:47:29.054Z,27.55
2018-07-13T07:48:28.932Z,27.21
2018-07-13T07:49:28.878Z,27.72
2018-07-13T07:50:28.796Z,28.46
2018-07-13T07:51:28.738Z,28.40
2018-07-13T07:52:28.659Z,28.40
2018-07-13T07:53:28.594Z,28.51
2018-07-13T07:54:28.550Z,27.81
2018-07-13T07:55:28.453Z,26.68
2018-07-13T07:56:28.406Z,25.89
2018-07-13T07:57:28.377Z,26.97
2018-07-13T08:02:51.348Z,28.23
2018-07-13T08:03:51.282Z,27.91
2018-07-13T08:04:51.187Z,28.50
2018-07-13T08:05:51.138Z,27.71
2018-07-13T08:06:52.243Z,28.33
2018-07-13T08:07:50.987Z,28.65
2018-07-13T08:08:50.932Z,28.70
2018-07-13T08:09:50.829Z,28.92
2018-07-13T08:10:50.764Z,29.02
2018-07-13T08:11:50.688Z,28.74
2018-07-13T08:12:51.690Z,29.15
2018-07-13T08:13:50.755Z,29.44
2018-07-13T08:16:32.443Z,29.54
2018-07-13T08:17:32.410Z,28.88
2018-07-13T08:18:32.293Z,29.08
2018-07-13T08:19:32.266Z,29.57
2018-07-13T08:20:33.003Z,29.41
2018-07-13T08:21:32.086Z,28.72
2018-07-13T08:22:32.196Z,28.58
2018-07-13T08:23:32.001Z,29.00
2018-07-13T08:24:31.889Z,29.70
2018-07-13T08:25:31.849Z,29.76
2018-07-13T08:26:31.767Z,29.21
2018-07-13T08:27:31.688Z,29.08
2018-07-13T08:28:31.624Z,29.20
2018-07-13T08:29:31.555Z,29.02
2018-07-13T08:30:31.477Z,28.25
2018-07-13T08:31:31.414Z,28.33
2018-07-13T08:32:31.349Z,28.17
2018-07-13T08:33:31.313Z,28.62
2018-07-13T08:34:31.217Z,27.71
2018-07-13T08:35:31.156Z,27.96
2018-07-13T08:36:31.081Z,28.50
2018-07-13T08:37:31.109Z,28.73
2018-07-13T08:38:31.008Z,29.52
2018-07-13T08:39:30.877Z,29.69
2018-07-13T08:40:30.825Z,29.71
2018-07-13T08:41:31.504Z,29.45
2018-07-13T08:42:30.674Z,29.81
2018-07-13T08:43:30.800Z,30.10
2018-07-13T08:44:30.572Z,30.10
2018-07-13T08:45:30.497Z,30.18
2018-07-13T08:46:30.403Z,30.04
2018-07-13T08:47:30.374Z,29.91
2018-07-13T08:48:30.279Z,30.26
2018-07-13T08:49:30.246Z,29.41
2018-07-13T08:50:30.196Z,28.85
2018-07-13T08:53:12.433Z,29.84
2018-07-13T08:54:12.409Z,29.94
2018-07-13T08:55:12.342Z,30.15
2018-07-13T08:56:12.319Z,28.67
2018-07-13T08:57:12.211Z,28.46
2018-07-13T08:58:12.128Z,28.77
2018-07-13T08:59:12.042Z,29.07
2018-07-13T09:00:13.093Z,29.08
2018-07-13T09:01:11.914Z,28.60
2018-07-13T09:02:11.868Z,28.57
2018-07-13T09:03:11.784Z,28.30
2018-07-13T09:04:11.791Z,29.12
2018-07-13T09:05:11.714Z,29.94
2018-07-13T09:06:11.581Z,30.18
2018-07-13T09:07:11.510Z,30.13
2018-07-13T09:08:11.472Z,29.63
2018-07-13T09:09:11.392Z,29.82
2018-07-13T09:10:11.347Z,29.81
2018-07-13T09:11:11.253Z,29.12
2018-07-13T09:12:11.226Z,28.03
2018-07-13T09:13:11.143Z,27.59
2018-07-13T09:14:11.063Z,28.17
2018-07-13T09:15:11.016Z,28.14
2018-07-13T09:16:10.930Z,28.48
2018-07-13T09:17:10.876Z,28.70
2018-07-13T09:18:10.866Z,29.18
2018-07-13T09:19:10.732Z,29.32
2018-07-13T09:20:10.715Z,29.73
2018-07-13T09:21:10.601Z,29.88
2018-07-13T09:22:10.543Z,29.49
2018-07-13T09:23:10.466Z,28.88
2018-07-13T09:24:10.475Z,29.49
2018-07-13T09:25:10.353Z,29.71
2018-07-13T09:26:11.299Z,29.97
2018-07-13T09:27:10.233Z,29.67
2018-07-13T09:28:10.166Z,29.73
2018-07-13T09:29:10.143Z,30.29
2018-07-13T09:30:10.038Z,30.15
2018-07-13T09:31:09.978Z,29.79
2018-07-13T09:32:09.991Z,29.71
2018-07-13T09:33:09.835Z,29.62
2018-07-13T09:34:09.812Z,29.99
2018-07-13T09:35:09.691Z,30.06
2018-07-13T09:36:09.759Z,30.45
2018-07-13T09:37:15.617Z,30.60
2018-07-13T09:38:09.499Z,30.38
2018-07-13T09:39:09.424Z,30.21
2018-07-13T09:40:09.367Z,29.51
2018-07-13T09:41:09.481Z,29.20
2018-07-13T09:43:51.462Z,29.36
2018-07-13T09:44:51.426Z,29.29
2018-07-13T09:45:51.387Z,29.42
2018-07-13T09:46:51.365Z,29.36
2018-07-13T09:47:51.204Z,28.74
2018-07-13T09:50:33.491Z,28.89
2018-07-13T09:51:33.462Z,29.32
2018-07-13T09:52:33.356Z,29.57
2018-07-13T09:53:33.307Z,29.37
2018-07-13T09:54:33.236Z,28.76
2018-07-13T09:55:33.167Z,28.62
2018-07-13T09:56:33.147Z,28.79
2018-07-13T09:59:14.981Z,28.82
2018-07-13T10:01:56.997Z,29.11
2018-07-13T10:04:38.967Z,30.49
2018-07-13T10:05:38.980Z,30.79
2018-07-13T10:06:38.864Z,30.28
2018-07-13T10:07:38.816Z,30.49
2018-07-13T10:08:38.739Z,30.91
2018-07-13T10:27:36.897Z,30.37
2018-07-13T10:30:19.032Z,29.73
2018-07-13T10:31:18.914Z,30.49
2018-07-13T10:32:18.859Z,31.10
2018-07-13T10:35:01.000Z,31.62
2018-07-13T10:37:43.014Z,31.09
2018-07-13T10:38:42.933Z,31.30
2018-07-13T10:39:42.866Z,32.12
2018-07-13T10:42:25.007Z,31.95
2018-07-13T10:43:24.930Z,31.84
2018-07-13T10:44:24.890Z,30.90
2018-07-13T10:45:24.810Z,30.86
2018-07-13T10:46:24.744Z,30.51
2018-07-13T10:47:24.702Z,30.79
2018-07-13T10:48:24.619Z,30.93
2018-07-13T10:49:24.553Z,30.81
2018-07-13T10:50:24.499Z,30.60
2018-07-13T10:51:24.483Z,30.51
2018-07-13T10:52:24.352Z,31.07
2018-07-13T10:53:24.305Z,31.28
2018-07-13T10:54:24.265Z,31.84
2018-07-13T10:55:24.235Z,31.60
2018-07-13T10:56:24.116Z,30.61
2018-07-13T10:57:24.068Z,30.42
2018-07-13T10:58:23.998Z,31.01
2018-07-13T10:59:24.043Z,31.05
2018-07-13T11:00:23.862Z,31.31
2018-07-13T11:01:23.806Z,31.09
2018-07-13T11:02:23.734Z,31.53
2018-07-13T11:03:23.737Z,31.76
2018-07-13T11:04:23.645Z,31.64
2018-07-13T11:05:23.587Z,30.68
2018-07-13T11:06:23.519Z,30.85
2018-07-13T11:09:05.494Z,31.57
2018-07-13T11:10:05.439Z,31.23
2018-07-13T11:11:05.415Z,30.59
2018-07-13T11:13:47.540Z,30.57
2018-07-13T11:14:47.453Z,30.78
2018-07-13T11:15:47.374Z,30.61
2018-07-13T11:19:30.552Z,29.69
2018-07-13T11:20:30.445Z,29.95
2018-07-13T11:21:30.413Z,30.42
2018-07-13T11:22:30.318Z,30.85
2018-07-13T11:23:30.244Z,30.76
2018-07-13T11:24:30.197Z,30.37
2018-07-13T11:25:30.127Z,30.60
2018-07-13T11:26:30.109Z,30.90
2018-07-13T11:27:29.995Z,30.94
2018-07-13T11:28:29.978Z,31.35
2018-07-13T11:29:29.907Z,31.30
2018-07-13T11:30:29.812Z,31.38
2018-07-13T11:31:29.847Z,31.60
2018-07-13T11:32:29.722Z,31.38
2018-07-13T11:33:29.616Z,31.52
2018-07-13T11:34:29.560Z,31.46
2018-07-13T11:35:30.529Z,31.67
2018-07-13T11:36:29.451Z,31.64
2018-07-13T11:37:29.374Z,31.54
2018-07-13T11:38:29.313Z,31.49
2018-07-13T11:39:29.242Z,31.13
2018-07-13T11:40:29.180Z,31.12
2018-07-13T11:41:29.138Z,30.88
2018-07-13T11:42:29.118Z,30.94
2018-07-13T11:43:28.990Z,31.07
2018-07-13T11:44:28.926Z,31.12
2018-07-13T11:45:29.906Z,30.88
2018-07-13T11:46:28.790Z,31.00
2018-07-13T11:47:28.775Z,31.13
2018-07-13T11:48:28.672Z,31.62
2018-07-13T11:49:28.616Z,31.16
2018-07-13T11:50:28.556Z,31.25
2018-07-13T11:51:28.487Z,30.64
2018-07-13T11:52:28.442Z,29.57
2018-07-13T11:55:10.511Z,30.46
2018-07-13T11:56:10.452Z,30.78
2018-07-13T11:57:10.419Z,30.88
2018-07-13T11:59:52.519Z,31.49
2018-07-13T12:00:52.519Z,31.79
2018-07-13T12:01:52.497Z,31.49
2018-07-13T12:02:52.317Z,31.49
2018-07-13T12:03:52.241Z,31.01
2018-07-13T12:04:52.194Z,30.44
2018-07-13T12:05:52.133Z,30.45
2018-07-13T12:06:52.061Z,30.63
2018-07-13T12:07:52.032Z,30.70
2018-07-13T12:08:51.919Z,30.70
2018-07-13T12:09:51.859Z,29.95
2018-07-13T12:10:51.803Z,29.85
2018-07-13T12:11:51.751Z,29.64
2018-07-13T12:12:51.676Z,29.66
2018-07-13T12:13:51.588Z,29.71
2018-07-13T12:16:33.522Z,29.39
2018-07-13T12:19:15.552Z,29.05
2018-07-13T12:20:15.464Z,29.12
2018-07-13T12:21:15.439Z,29.11
2018-07-13T12:22:15.317Z,29.11
2018-07-13T12:23:15.248Z,28.69
2018-07-13T12:24:15.214Z,28.39
2018-07-13T12:25:15.104Z,28.17
2018-07-13T12:26:15.033Z,28.30
2018-07-13T12:27:14.958Z,28.38
2018-07-13T12:28:14.886Z,28.51
2018-07-13T12:29:14.815Z,28.06
2018-07-13T12:30:14.745Z,28.02
2018-07-13T12:31:14.670Z,28.03
2018-07-13T12:33:56.529Z,28.55
2018-07-13T12:36:38.519Z,27.96
2018-07-13T12:39:20.538Z,28.36
2018-07-13T12:40:20.459Z,28.18
2018-07-13T12:41:20.378Z,28.36
2018-07-13T12:42:20.301Z,28.35
2018-07-13T12:43:20.250Z,28.17
2018-07-13T12:44:20.187Z,28.17
2018-07-13T12:45:20.079Z,28.30
2018-07-13T12:46:20.028Z,28.42
2018-07-13T12:47:19.950Z,28.54
2018-07-13T12:50:02.074Z,28.64
2018-07-13T12:51:01.962Z,28.58
2018-07-13T12:52:01.877Z,28.69
2018-07-13T12:54:44.155Z,28.48
2018-07-13T12:55:43.992Z,28.23
2018-07-13T12:56:43.892Z,28.17
2018-07-13T12:57:43.819Z,28.28
2018-07-13T12:58:43.752Z,28.38
2018-07-13T12:59:43.711Z,28.39
2018-07-13T13:00:43.712Z,28.54
2018-07-13T13:03:25.543Z,28.17
2018-07-13T13:04:25.491Z,28.30
2018-07-13T13:05:25.479Z,28.45
2018-07-13T13:06:25.355Z,28.51
2018-07-13T13:07:25.246Z,28.58
2018-07-13T13:08:25.199Z,28.72
2018-07-13T13:09:25.121Z,28.72
2018-07-13T13:10:26.092Z,28.58
2018-07-13T13:11:24.968Z,28.20
2018-07-13T13:12:24.893Z,28.23
2018-07-13T13:13:24.825Z,28.40
2018-07-13T13:14:24.821Z,28.42
2018-07-13T13:15:24.735Z,28.42
2018-07-13T13:16:25.639Z,28.52
2018-07-13T13:17:24.532Z,28.61
2018-07-13T13:18:24.459Z,28.32
2018-07-13T13:19:24.398Z,27.98
2018-07-13T13:20:24.333Z,27.98
2018-07-13T13:21:24.258Z,28.09
2018-07-13T13:22:24.179Z,28.28
2018-07-13T13:23:24.103Z,28.01
2018-07-13T13:24:24.053Z,28.09
2018-07-13T13:25:23.941Z,28.25
2018-07-13T13:26:23.908Z,28.36
2018-07-13T13:27:23.805Z,28.54
2018-07-13T13:28:23.743Z,28.64
2018-07-13T13:29:23.683Z,28.54
2018-07-13T13:32:05.576Z,28.42
2018-07-13T13:34:47.560Z,28.52
2018-07-13T13:35:47.481Z,28.54
2018-07-13T13:36:47.519Z,28.65
2018-07-13T13:37:47.350Z,28.60
2018-07-13T13:38:47.253Z,28.62
2018-07-13T13:39:47.194Z,28.60
2018-07-13T13:40:47.119Z,28.88
2018-07-13T13:41:47.065Z,28.77
2018-07-13T13:42:46.971Z,28.69
2018-07-13T13:43:46.902Z,28.60
2018-07-13T13:44:46.820Z,28.79
2018-07-13T13:45:46.763Z,28.85
2018-07-13T13:46:46.704Z,28.91
2018-07-13T13:47:47.622Z,28.98
2018-07-13T13:48:46.559Z,29.14
2018-07-13T13:49:46.474Z,29.07
2018-07-13T13:50:46.376Z,28.62
2018-07-13T13:51:46.326Z,28.50
2018-07-13T13:52:46.225Z,28.30
2018-07-13T13:55:28.555Z,28.69
2018-07-13T13:56:28.469Z,28.74
2018-07-13T13:57:28.433Z,28.65
2018-07-13T13:58:28.385Z,28.52
2018-07-13T13:59:28.272Z,28.35
2018-07-13T14:02:10.568Z,28.21
2018-07-13T14:03:10.513Z,28.14
2018-07-13T14:04:10.438Z,28.21
2018-07-13T14:05:10.399Z,28.21
2018-07-13T14:06:10.268Z,28.42
2018-07-13T14:07:10.193Z,28.51
2018-07-13T14:08:10.150Z,28.70
2018-07-13T14:10:52.061Z,28.92
2018-07-13T14:11:51.996Z,28.94
2018-07-13T14:12:51.937Z,28.89
2018-07-13T14:13:51.877Z,28.80
2018-07-13T14:14:51.827Z,28.67
2018-07-13T14:15:51.704Z,28.77
2018-07-13T14:16:51.635Z,28.79
2018-07-13T14:17:51.570Z,28.76
2018-07-13T14:18:51.526Z,28.64
2018-07-13T14:19:51.426Z,28.74
2018-07-13T14:20:51.330Z,28.73
2018-07-13T14:21:51.289Z,28.74
2018-07-13T14:22:51.186Z,28.69
2018-07-13T14:23:51.155Z,28.64
2018-07-13T14:24:51.049Z,28.69
2018-07-13T14:25:51.004Z,28.87
2018-07-13T14:26:50.930Z,28.70
2018-07-13T14:27:50.836Z,28.64
2018-07-13T14:28:50.773Z,28.46
2018-07-13T14:29:50.745Z,28.50
2018-07-13T14:30:50.599Z,28.55
2018-07-13T14:31:50.531Z,28.55
2018-07-13T14:32:50.451Z,28.70
2018-07-13T14:33:50.420Z,28.92
2018-07-13T14:34:50.305Z,28.87
2018-07-13T14:35:50.241Z,28.88
2018-07-13T14:36:50.168Z,28.62
2018-07-13T14:37:50.112Z,28.50
2018-07-13T14:38:50.023Z,28.48
2018-07-13T14:39:51.007Z,28.60
2018-07-13T14:40:49.907Z,28.64
2018-07-13T14:41:49.823Z,28.72
2018-07-13T14:42:49.737Z,28.79
2018-07-13T14:43:49.705Z,28.74
2018-07-13T14:44:49.699Z,28.69
2018-07-13T14:45:49.553Z,28.76
2018-07-13T14:46:49.534Z,28.52
2018-07-13T14:47:49.380Z,28.55
2018-07-13T14:48:49.293Z,28.54
2018-07-13T14:49:49.264Z,28.55
2018-07-13T14:50:49.177Z,28.50
2018-07-13T14:51:49.088Z,28.48
2018-07-13T14:52:49.010Z,28.54
2018-07-13T14:53:49.982Z,28.54
2018-07-13T14:54:48.871Z,28.52
2018-07-13T14:55:48.804Z,28.54
2018-07-13T14:56:48.754Z,28.40
2018-07-13T14:57:48.657Z,28.52
2018-07-13T14:58:48.584Z,28.51
2018-07-13T14:59:48.607Z,28.23
2018-07-13T15:00:48.452Z,28.21
2018-07-13T15:01:48.376Z,28.38
2018-07-13T15:02:48.303Z,28.57
2018-07-13T15:03:48.265Z,28.54
2018-07-13T15:04:48.130Z,28.50
2018-07-13T15:05:48.144Z,28.57
2018-07-13T15:06:48.013Z,28.57
2018-07-13T15:09:30.077Z,28.33
2018-07-13T15:10:30.016Z,28.43
2018-07-13T15:11:29.955Z,28.48
2018-07-13T15:12:29.888Z,28.51
2018-07-13T15:13:29.786Z,28.46
2018-07-13T15:16:12.111Z,28.52
2018-07-13T15:17:12.048Z,28.57
2018-07-13T15:18:11.953Z,28.45
2018-07-13T15:19:11.900Z,28.45
2018-07-13T15:20:11.805Z,28.36
2018-07-13T15:22:54.143Z,28.43
2018-07-13T15:23:54.033Z,28.36
2018-07-13T15:24:53.970Z,28.11
2018-07-13T15:27:36.127Z,27.91
2018-07-13T15:28:37.060Z,28.02
2018-07-13T15:29:35.969Z,27.96
2018-07-13T15:30:35.881Z,28.15
2018-07-13T15:31:35.807Z,28.08
2018-07-13T15:32:35.776Z,28.23
2018-07-13T15:33:35.786Z,28.35
2018-07-13T15:34:35.605Z,28.32
2018-07-13T15:35:35.505Z,28.23
2018-07-13T15:36:35.452Z,28.23
2018-07-13T15:37:35.405Z,28.23
2018-07-13T15:40:17.602Z,28.21
2018-07-13T15:41:17.556Z,28.25
2018-07-13T15:42:17.620Z,28.30
2018-07-13T15:43:17.469Z,28.18
2018-07-13T15:44:17.314Z,28.25
2018-07-13T15:46:59.610Z,28.39
2018-07-13T15:47:59.588Z,28.40
2018-07-13T15:48:59.463Z,28.50
2018-07-13T15:49:59.407Z,28.45
2018-07-13T15:50:59.327Z,28.39
2018-07-13T15:51:59.264Z,28.35
2018-07-13T15:52:59.192Z,28.38
2018-07-13T15:53:59.117Z,28.43
2018-07-13T15:54:59.070Z,28.32
2018-07-13T15:55:58.980Z,28.23
2018-07-13T15:56:58.903Z,28.14
2018-07-13T15:57:58.987Z,28.11
2018-07-13T15:58:58.839Z,28.06
2018-07-13T15:59:58.700Z,28.06
2018-07-13T16:00:58.581Z,28.13
2018-07-13T16:01:58.604Z,28.21
2018-07-13T16:02:58.442Z,28.24
2018-07-13T16:03:58.475Z,28.24
2018-07-13T16:04:58.305Z,28.35
2018-07-13T16:05:58.327Z,28.11
2018-07-13T16:06:58.217Z,28.21
2018-07-13T16:07:58.149Z,28.30
2018-07-13T16:08:58.034Z,28.36
2018-07-13T16:09:57.992Z,28.36
2018-07-13T16:10:57.887Z,28.23
2018-07-13T16:11:57.867Z,28.30
2018-07-13T16:12:57.731Z,28.30
2018-07-13T16:13:57.727Z,28.18
2018-07-13T16:14:57.568Z,28.14
2018-07-13T16:15:57.576Z,28.23
2018-07-13T16:16:57.429Z,28.27
2018-07-13T16:17:57.398Z,28.14
2018-07-13T16:18:57.304Z,28.14
2018-07-13T16:19:57.312Z,28.17
2018-07-13T16:20:57.137Z,28.14
2018-07-13T16:21:57.121Z,28.08
2018-07-13T16:22:56.995Z,28.06
2018-07-13T16:23:57.067Z,28.08
2018-07-13T16:24:56.871Z,28.21
2018-07-13T16:25:56.837Z,28.17
2018-07-13T16:26:56.684Z,28.20
2018-07-13T16:27:56.664Z,28.14